createdAt,value
2017-06-02T00:00:55.397Z,0
2017-06-02T00:01:55.420Z,0
2017-06-02T00:02:55.360Z,0
2017-06-02T00:03:55.337Z,0
2017-06-02T00:04:55.316Z,0
2017-06-02T00:05:55.293Z,0
2017-06-02T00:06:55.335Z,0
2017-06-02T00:07:55.269Z,0
2017-06-02T00:08:55.241Z,0
2017-06-02T00:09:55.213Z,0
2017-06-02T00:10:55.254Z,0
2017-06-02T00:11:54.870Z,0
2017-06-02T00:12:55.157Z,0
2017-06-02T00:13:55.144Z,0
2017-06-02T00:14:55.118Z,0
2017-06-02T00:15:55.147Z,0
2017-06-02T00:16:54.187Z,0
2017-06-02T00:17:55.065Z,0
2017-06-02T00:18:54.737Z,0
2017-06-02T00:19:55.016Z,0
2017-06-02T00:20:55.096Z,0
2017-06-02T00:21:54.683Z,0
2017-06-02T00:22:54.969Z,0
2017-06-02T00:23:54.927Z,0
2017-06-02T00:24:54.614Z,0
2017-06-02T00:25:54.589Z,0
2017-06-02T00:26:54.876Z,0
2017-06-02T00:27:54.560Z,0
2017-06-02T00:28:54.846Z,0
2017-06-02T00:29:54.516Z,0
2017-06-02T00:30:54.790Z,0
2017-06-02T00:31:54.826Z,0
2017-06-02T00:32:54.758Z,0
2017-06-02T00:33:54.439Z,0
2017-06-02T00:34:54.414Z,0
2017-06-02T00:35:54.687Z,0
2017-06-02T00:36:54.768Z,0
2017-06-02T00:37:54.662Z,0
2017-06-02T00:38:54.637Z,0
2017-06-02T00:39:54.362Z,0
2017-06-02T00:40:54.287Z,0
2017-06-02T00:41:54.577Z,0
2017-06-02T00:42:54.550Z,0
2017-06-02T00:43:54.528Z,0
2017-06-02T00:44:54.507Z,0
2017-06-02T00:45:54.497Z,0
2017-06-02T00:46:54.463Z,0
2017-06-02T00:47:54.696Z,0
2017-06-02T00:48:54.685Z,0
2017-06-02T00:49:54.699Z,0
2017-06-02T00:50:54.391Z,0
2017-06-02T00:51:54.618Z,0
2017-06-02T00:52:54.346Z,0
2017-06-02T00:53:54.383Z,0
2017-06-02T00:54:54.005Z,0
2017-06-02T00:55:53.690Z,0
2017-06-02T00:56:54.269Z,0
2017-06-02T00:57:54.251Z,0
2017-06-02T00:58:54.274Z,0
2017-06-02T00:59:54.205Z,0
2017-06-02T01:00:54.200Z,0
2017-06-02T01:01:53.863Z,0
2017-06-02T01:02:54.146Z,0
2017-06-02T01:03:54.118Z,0
2017-06-02T01:04:54.107Z,0
2017-06-02T01:05:54.084Z,0
2017-06-02T01:06:54.069Z,0
2017-06-02T01:07:54.086Z,0
2017-06-02T01:08:54.029Z,0
2017-06-02T01:09:54.007Z,0
2017-06-02T01:10:53.982Z,0
2017-06-02T01:11:53.962Z,0
2017-06-02T01:12:53.939Z,0
2017-06-02T01:13:53.929Z,0
2017-06-02T01:14:53.911Z,0
2017-06-02T01:15:53.882Z,0
2017-06-02T01:16:53.902Z,0
2017-06-02T01:17:53.585Z,0
2017-06-02T01:18:53.816Z,0
2017-06-02T01:19:53.811Z,0
2017-06-02T01:20:53.776Z,0
2017-06-02T01:21:53.754Z,0
2017-06-02T01:22:53.735Z,0
2017-06-02T01:23:53.718Z,0
2017-06-02T01:24:53.793Z,0
2017-06-02T01:25:53.073Z,0
2017-06-02T01:26:53.652Z,0
2017-06-02T01:27:53.345Z,0
2017-06-02T01:28:53.612Z,0
2017-06-02T01:29:53.596Z,0
2017-06-02T01:30:53.580Z,0
2017-06-02T01:31:53.857Z,0
2017-06-02T01:32:53.537Z,0
2017-06-02T01:33:53.504Z,0
2017-06-02T01:34:53.499Z,0
2017-06-02T01:35:53.467Z,0
2017-06-02T01:36:53.475Z,0
2017-06-02T01:37:53.431Z,0
2017-06-02T01:38:53.162Z,0
2017-06-02T01:39:53.405Z,0
2017-06-02T01:40:53.362Z,0
2017-06-02T01:41:53.346Z,0
2017-06-02T01:42:53.339Z,0
2017-06-02T01:43:53.308Z,0
2017-06-02T01:44:53.330Z,0
2017-06-02T01:45:53.325Z,0
2017-06-02T01:46:53.300Z,0
2017-06-02T01:47:53.235Z,0
2017-06-02T01:48:53.205Z,0
2017-06-02T01:49:53.180Z,0
2017-06-02T01:50:53.158Z,0
2017-06-02T01:51:53.142Z,0
2017-06-02T01:52:53.115Z,0
2017-06-02T01:53:53.109Z,0
2017-06-02T01:54:53.089Z,0
2017-06-02T01:55:53.107Z,0
2017-06-02T01:56:53.051Z,0
2017-06-02T01:57:53.068Z,0
2017-06-02T01:58:53.013Z,0
2017-06-02T01:59:52.980Z,0
2017-06-02T02:00:52.957Z,0
2017-06-02T02:01:52.638Z,0
2017-06-02T02:02:52.907Z,0
2017-06-02T02:03:52.921Z,0
2017-06-02T02:04:52.883Z,0
2017-06-02T02:05:52.854Z,0
2017-06-02T02:06:52.831Z,0
2017-06-02T02:07:52.816Z,0
2017-06-02T02:08:52.789Z,0
2017-06-02T02:09:52.774Z,0
2017-06-02T02:10:52.748Z,0
2017-06-02T02:11:52.730Z,0
2017-06-02T02:12:52.709Z,0
2017-06-02T02:13:52.680Z,0
2017-06-02T02:14:52.669Z,0
2017-06-02T02:15:52.699Z,0
2017-06-02T02:16:52.631Z,0
2017-06-02T02:17:52.662Z,0
2017-06-02T02:18:52.685Z,0
2017-06-02T02:19:52.573Z,0
2017-06-02T02:20:52.543Z,0
2017-06-02T02:21:52.527Z,0
2017-06-02T02:22:52.510Z,0
2017-06-02T02:23:52.483Z,0
2017-06-02T02:24:52.461Z,0
2017-06-02T02:25:52.462Z,0
2017-06-02T02:26:52.421Z,0
2017-06-02T02:27:52.095Z,0
2017-06-02T02:28:52.374Z,0
2017-06-02T02:29:52.403Z,0
2017-06-02T02:30:52.336Z,0
2017-06-02T02:31:52.323Z,0
2017-06-02T02:32:52.304Z,0
2017-06-02T02:33:52.274Z,0
2017-06-02T02:34:52.264Z,0
2017-06-02T02:35:52.238Z,0
2017-06-02T02:36:52.229Z,0
2017-06-02T02:37:52.205Z,0
2017-06-02T02:38:52.174Z,0
2017-06-02T02:39:52.154Z,0
2017-06-02T02:40:51.824Z,0
2017-06-02T02:41:51.515Z,0
2017-06-02T02:42:52.092Z,0
2017-06-02T02:43:52.117Z,0
2017-06-02T02:44:52.049Z,0
2017-06-02T02:45:52.022Z,0
2017-06-02T02:46:52.003Z,0
2017-06-02T02:47:51.990Z,0
2017-06-02T02:48:52.008Z,0
2017-06-02T02:49:51.987Z,0
2017-06-02T02:50:51.932Z,0
2017-06-02T02:51:51.902Z,0
2017-06-02T02:52:51.880Z,0
2017-06-02T02:53:51.862Z,0
2017-06-02T02:54:51.841Z,0
2017-06-02T02:55:51.814Z,0
2017-06-02T02:56:51.795Z,0
2017-06-02T02:57:51.771Z,0
2017-06-02T02:58:51.763Z,0
2017-06-02T02:59:51.735Z,0
2017-06-02T03:00:51.716Z,0
2017-06-02T03:01:51.695Z,0
2017-06-02T03:02:51.671Z,0
2017-06-02T03:03:51.695Z,0
2017-06-02T03:04:51.625Z,0
2017-06-02T03:05:51.610Z,0
2017-06-02T03:06:51.591Z,0
2017-06-02T03:07:51.573Z,5
2017-06-02T03:08:51.244Z,5
2017-06-02T03:09:51.521Z,5
2017-06-02T03:10:51.560Z,5
2017-06-02T03:11:51.485Z,5
2017-06-02T03:12:51.465Z,5
2017-06-02T03:13:51.190Z,5
2017-06-02T03:14:51.418Z,5
2017-06-02T03:15:51.406Z,5
2017-06-02T03:16:51.390Z,10
2017-06-02T03:17:51.357Z,10
2017-06-02T03:18:51.341Z,10
2017-06-02T03:19:51.319Z,10
2017-06-02T03:20:51.292Z,10
2017-06-02T03:21:51.289Z,10
2017-06-02T03:22:51.248Z,10
2017-06-02T03:23:51.228Z,15
2017-06-02T03:24:51.264Z,15
2017-06-02T03:25:51.183Z,15
2017-06-02T03:26:50.876Z,15
2017-06-02T03:27:51.145Z,20
2017-06-02T03:28:51.137Z,20
2017-06-02T03:29:51.106Z,20
2017-06-02T03:30:51.105Z,20
2017-06-02T03:31:51.172Z,25
2017-06-02T03:32:51.055Z,25
2017-06-02T03:33:51.018Z,25
2017-06-02T03:34:50.996Z,25
2017-06-02T03:35:50.977Z,30
2017-06-02T03:36:50.979Z,30
2017-06-02T03:37:50.945Z,30
2017-06-02T03:38:50.922Z,30
2017-06-02T03:39:50.895Z,35
2017-06-02T03:40:50.925Z,35
2017-06-02T03:41:50.865Z,40
2017-06-02T03:42:50.831Z,40
2017-06-02T03:43:50.817Z,45
2017-06-02T03:44:50.786Z,45
2017-06-02T03:45:50.761Z,50
2017-06-02T03:46:50.752Z,50
2017-06-02T03:47:50.724Z,50
2017-06-02T03:48:50.714Z,55
2017-06-02T03:49:50.734Z,60
2017-06-02T03:50:50.361Z,65
2017-06-02T03:51:50.641Z,65
2017-06-02T03:52:50.625Z,75
2017-06-02T03:53:50.645Z,80
2017-06-02T03:54:50.282Z,85
2017-06-02T03:55:50.556Z,90
2017-06-02T03:56:50.541Z,95
2017-06-02T03:57:50.539Z,95
2017-06-02T03:58:50.495Z,100
2017-06-02T03:59:50.482Z,105
2017-06-02T04:00:50.479Z,110
2017-06-02T04:01:50.448Z,115
2017-06-02T04:02:50.418Z,120
2017-06-02T04:03:50.690Z,120
2017-06-02T04:04:50.385Z,125
2017-06-02T04:05:50.360Z,125
2017-06-02T04:06:50.339Z,130
2017-06-02T04:07:50.308Z,135
2017-06-02T04:08:50.341Z,140
2017-06-02T04:09:50.330Z,145
2017-06-02T04:10:50.308Z,150
2017-06-02T04:11:50.242Z,150
2017-06-02T04:12:50.219Z,150
2017-06-02T04:13:50.199Z,155
2017-06-02T04:14:49.875Z,155
2017-06-02T04:15:50.156Z,160
2017-06-02T04:16:50.142Z,165
2017-06-02T04:17:50.108Z,175
2017-06-02T04:18:50.137Z,170
2017-06-02T04:19:50.072Z,180
2017-06-02T04:20:50.058Z,180
2017-06-02T04:21:50.029Z,185
2017-06-02T04:22:50.010Z,190
2017-06-02T04:23:49.993Z,200
2017-06-02T04:24:49.679Z,205
2017-06-02T04:25:50.029Z,210
2017-06-02T04:26:49.951Z,215
2017-06-02T04:27:49.916Z,215
2017-06-02T04:28:49.897Z,225
2017-06-02T04:29:49.574Z,230
2017-06-02T04:30:49.858Z,230
2017-06-02T04:31:49.853Z,225
2017-06-02T04:32:49.826Z,225
2017-06-02T04:33:49.791Z,200
2017-06-02T04:34:49.830Z,225
2017-06-02T04:35:49.460Z,230
2017-06-02T04:36:49.750Z,225
2017-06-02T04:37:49.430Z,230
2017-06-02T04:38:49.704Z,200
2017-06-02T04:39:49.689Z,200
2017-06-02T04:40:49.671Z,245
2017-06-02T04:41:49.657Z,245
2017-06-02T04:42:49.650Z,245
2017-06-02T04:43:49.661Z,240
2017-06-02T04:44:49.591Z,245
2017-06-02T04:45:49.626Z,250
2017-06-02T04:46:49.561Z,250
2017-06-02T04:47:49.242Z,245
2017-06-02T04:48:48.620Z,270
2017-06-02T04:49:49.520Z,235
2017-06-02T04:50:49.478Z,210
2017-06-02T04:51:49.463Z,205
2017-06-02T04:52:49.449Z,205
2017-06-02T04:53:49.438Z,205
2017-06-02T04:54:49.459Z,210
2017-06-02T04:55:49.388Z,215
2017-06-02T04:56:49.371Z,245
2017-06-02T04:57:49.047Z,225
2017-06-02T04:58:48.731Z,230
2017-06-02T04:59:49.341Z,330
2017-06-02T05:00:49.295Z,315
2017-06-02T05:01:49.278Z,300
2017-06-02T05:02:49.256Z,270
2017-06-02T05:03:49.240Z,335
2017-06-02T05:04:49.225Z,255
2017-06-02T05:05:49.209Z,275
2017-06-02T05:06:48.911Z,380
2017-06-02T05:07:49.174Z,390
2017-06-02T05:08:49.152Z,395
2017-06-02T05:09:48.523Z,305
2017-06-02T05:10:49.112Z,380
2017-06-02T05:11:49.096Z,375
2017-06-02T05:12:49.077Z,400
2017-06-02T05:13:49.077Z,335
2017-06-02T05:14:49.033Z,425
2017-06-02T05:15:49.029Z,425
2017-06-02T05:16:49.256Z,435
2017-06-02T05:17:48.978Z,430
2017-06-02T05:18:48.960Z,430
2017-06-02T05:19:48.949Z,430
2017-06-02T05:20:48.938Z,355
2017-06-02T05:21:48.918Z,425
2017-06-02T05:22:48.903Z,425
2017-06-02T05:23:48.922Z,420
2017-06-02T05:24:48.867Z,470
2017-06-02T05:25:48.848Z,470
2017-06-02T05:26:49.136Z,470
2017-06-02T05:27:48.519Z,480
2017-06-02T05:28:48.794Z,465
2017-06-02T05:29:48.485Z,365
2017-06-02T05:30:48.768Z,460
2017-06-02T05:31:48.751Z,490
2017-06-02T05:32:48.746Z,510
2017-06-02T05:33:48.721Z,515
2017-06-02T05:34:48.751Z,490
2017-06-02T05:35:48.686Z,505
2017-06-02T05:36:48.665Z,530
2017-06-02T05:37:48.651Z,535
2017-06-02T05:38:48.642Z,535
2017-06-02T05:39:48.619Z,565
2017-06-02T05:40:48.610Z,565
2017-06-02T05:41:48.599Z,575
2017-06-02T05:42:48.580Z,580
2017-06-02T05:43:48.567Z,580
2017-06-02T05:44:48.631Z,585
2017-06-02T05:45:48.543Z,585
2017-06-02T05:46:48.535Z,600
2017-06-02T05:47:48.214Z,610
2017-06-02T05:48:48.503Z,620
2017-06-02T05:49:48.475Z,630
2017-06-02T05:50:48.472Z,645
2017-06-02T05:51:48.451Z,650
2017-06-02T05:52:48.436Z,660
2017-06-02T05:53:47.813Z,660
2017-06-02T05:54:48.463Z,665
2017-06-02T05:55:48.397Z,675
2017-06-02T05:56:48.087Z,685
2017-06-02T05:57:48.669Z,690
2017-06-02T05:58:48.410Z,685
2017-06-02T05:59:48.347Z,690
2017-06-02T06:00:48.324Z,690
2017-06-02T06:01:48.320Z,695
2017-06-02T06:02:48.306Z,700
2017-06-02T06:03:48.384Z,715
2017-06-02T06:04:47.971Z,735
2017-06-02T06:05:48.307Z,740
2017-06-02T06:06:48.252Z,750
2017-06-02T06:07:48.231Z,760
2017-06-02T06:08:48.224Z,760
2017-06-02T06:09:48.206Z,775
2017-06-02T06:10:48.247Z,775
2017-06-02T06:11:48.184Z,795
2017-06-02T06:12:48.165Z,800
2017-06-02T06:13:48.162Z,810
2017-06-02T06:14:48.154Z,800
2017-06-02T06:15:48.141Z,810
2017-06-02T06:16:48.121Z,815
2017-06-02T06:17:48.113Z,825
2017-06-02T06:18:48.104Z,830
2017-06-02T06:19:48.096Z,835
2017-06-02T06:20:48.103Z,835
2017-06-02T06:21:48.071Z,860
2017-06-02T06:22:47.752Z,875
2017-06-02T06:23:48.045Z,870
2017-06-02T06:24:48.050Z,880
2017-06-02T06:25:47.717Z,890
2017-06-02T06:26:48.008Z,895
2017-06-02T06:27:48.000Z,910
2017-06-02T06:28:48.029Z,930
2017-06-02T06:29:47.969Z,920
2017-06-02T06:30:47.963Z,915
2017-06-02T06:31:47.948Z,920
2017-06-02T06:32:47.939Z,920
2017-06-02T06:33:47.943Z,930
2017-06-02T06:34:47.638Z,940
2017-06-02T06:35:47.915Z,950
2017-06-02T06:36:47.946Z,955
2017-06-02T06:37:47.955Z,970
2017-06-02T06:38:47.885Z,980
2017-06-02T06:39:47.870Z,1000
2017-06-02T06:40:47.859Z,1010
2017-06-02T06:41:47.851Z,1015
2017-06-02T06:42:47.544Z,1025
2017-06-02T06:43:47.823Z,1035
2017-06-02T06:44:47.514Z,1035
2017-06-02T06:45:47.799Z,1040
2017-06-02T06:46:47.799Z,1035
2017-06-02T06:47:47.476Z,1045
2017-06-02T06:48:47.771Z,1055
2017-06-02T06:49:47.470Z,1060
2017-06-02T06:50:47.756Z,1070
2017-06-02T06:51:47.747Z,1070
2017-06-02T06:52:47.738Z,1080
2017-06-02T06:53:47.724Z,1075
2017-06-02T06:54:47.786Z,1085
2017-06-02T06:55:47.705Z,1090
2017-06-02T06:56:47.700Z,1095
2017-06-02T06:57:47.698Z,1075
2017-06-02T06:58:47.699Z,1095
2017-06-02T06:59:47.668Z,1095
2017-06-02T07:00:47.414Z,1130
2017-06-02T07:01:47.651Z,1060
2017-06-02T07:02:47.690Z,940
2017-06-02T07:03:47.635Z,820
2017-06-02T07:04:47.623Z,665
2017-06-02T07:05:47.667Z,640
2017-06-02T07:06:47.616Z,615
2017-06-02T07:07:47.595Z,595
2017-06-02T07:08:47.287Z,605
2017-06-02T07:09:47.574Z,600
2017-06-02T07:10:47.562Z,600
2017-06-02T07:11:47.556Z,655
2017-06-02T07:12:47.538Z,580
2017-06-02T07:13:47.584Z,570
2017-06-02T07:14:47.519Z,560
2017-06-02T07:15:47.515Z,520
2017-06-02T07:16:47.548Z,1025
2017-06-02T07:17:47.509Z,565
2017-06-02T07:18:47.486Z,595
2017-06-02T07:19:46.917Z,620
2017-06-02T07:20:47.746Z,710
2017-06-02T07:21:47.448Z,705
2017-06-02T07:22:47.439Z,800
2017-06-02T07:23:47.417Z,765
2017-06-02T07:24:47.403Z,1285
2017-06-02T07:25:47.398Z,1195
2017-06-02T07:26:47.626Z,730
2017-06-02T07:27:47.365Z,770
2017-06-02T07:28:47.357Z,1250
2017-06-02T07:29:47.341Z,875
2017-06-02T07:30:47.335Z,725
2017-06-02T07:31:47.323Z,1225
2017-06-02T07:32:47.367Z,880
2017-06-02T07:33:47.321Z,670
2017-06-02T07:34:47.304Z,660
2017-06-02T07:35:47.284Z,730
2017-06-02T07:36:47.268Z,1225
2017-06-02T07:37:47.254Z,1375
2017-06-02T07:38:46.945Z,1360
2017-06-02T07:39:47.291Z,1225
2017-06-02T07:40:47.228Z,1405
2017-06-02T07:41:47.217Z,1415
2017-06-02T07:42:47.459Z,815
2017-06-02T07:43:47.190Z,1085
2017-06-02T07:44:47.188Z,960
2017-06-02T07:45:46.873Z,920
2017-06-02T07:46:47.214Z,1485
2017-06-02T07:47:46.849Z,1455
2017-06-02T07:48:47.150Z,1275
2017-06-02T07:49:47.142Z,1125
2017-06-02T07:50:47.134Z,795
2017-06-02T07:51:47.172Z,770
2017-06-02T07:52:46.806Z,690
2017-06-02T07:53:47.092Z,735
2017-06-02T07:54:47.089Z,710
2017-06-02T07:55:46.778Z,720
2017-06-02T07:56:46.758Z,1570
2017-06-02T07:57:47.054Z,725
2017-06-02T07:58:46.454Z,700
2017-06-02T07:59:47.039Z,745
2017-06-02T08:00:47.090Z,755
2017-06-02T08:01:47.009Z,730
2017-06-02T08:02:47.004Z,1045
2017-06-02T08:03:47.007Z,770
2017-06-02T08:04:46.985Z,730
2017-06-02T08:05:46.969Z,715
2017-06-02T08:06:47.010Z,705
2017-06-02T08:07:46.950Z,765
2017-06-02T08:08:46.934Z,1580
2017-06-02T08:09:46.623Z,1250
2017-06-02T08:10:46.928Z,795
2017-06-02T08:11:46.901Z,1395
2017-06-02T08:12:46.597Z,1650
2017-06-02T08:13:46.573Z,885
2017-06-02T08:14:46.580Z,1140
2017-06-02T08:15:46.866Z,1655
2017-06-02T08:16:46.853Z,1075
2017-06-02T08:17:46.904Z,810
2017-06-02T08:18:46.828Z,725
2017-06-02T08:19:46.820Z,735
2017-06-02T08:20:46.866Z,725
2017-06-02T08:21:46.504Z,805
2017-06-02T08:22:46.491Z,855
2017-06-02T08:23:46.785Z,915
2017-06-02T08:24:46.829Z,1200
2017-06-02T08:25:46.766Z,1565
2017-06-02T08:26:46.754Z,1230
2017-06-02T08:27:46.439Z,930
2017-06-02T08:28:46.431Z,940
2017-06-02T08:29:46.763Z,1320
2017-06-02T08:30:46.715Z,895
2017-06-02T08:31:46.695Z,905
2017-06-02T08:32:46.688Z,1160
2017-06-02T08:33:46.725Z,1545
2017-06-02T08:34:46.671Z,1385
2017-06-02T08:35:46.659Z,1675
2017-06-02T08:36:46.642Z,1540
2017-06-02T08:37:46.341Z,1260
2017-06-02T08:38:46.622Z,1085
2017-06-02T08:39:46.624Z,1120
2017-06-02T08:40:46.361Z,1155
2017-06-02T08:41:46.658Z,1535
2017-06-02T08:42:46.595Z,1805
2017-06-02T08:43:46.273Z,1740
2017-06-02T08:44:46.573Z,1755
2017-06-02T08:45:46.868Z,1750
2017-06-02T08:46:46.552Z,1655
2017-06-02T08:47:46.544Z,1745
2017-06-02T08:48:46.535Z,1845
2017-06-02T08:49:46.582Z,1210
2017-06-02T08:50:46.208Z,1205
2017-06-02T08:51:46.560Z,1215
2017-06-02T08:52:46.502Z,1040
2017-06-02T08:53:46.491Z,1410
2017-06-02T08:54:46.484Z,1260
2017-06-02T08:55:46.486Z,1065
2017-06-02T08:56:46.204Z,1200
2017-06-02T08:57:46.453Z,970
2017-06-02T08:58:46.464Z,1120
2017-06-02T08:59:46.444Z,1020
2017-06-02T09:00:46.445Z,1255
2017-06-02T09:01:46.487Z,840
2017-06-02T09:02:46.432Z,775
2017-06-02T09:03:46.423Z,745
2017-06-02T09:04:46.476Z,750
2017-06-02T09:05:46.394Z,760
2017-06-02T09:06:46.389Z,815
2017-06-02T09:07:46.382Z,725
2017-06-02T09:08:45.760Z,680
2017-06-02T09:09:46.366Z,680
2017-06-02T09:10:46.042Z,1010
2017-06-02T09:11:46.397Z,820
2017-06-02T09:12:46.394Z,885
2017-06-02T09:13:46.365Z,905
2017-06-02T09:14:46.001Z,935
2017-06-02T09:15:46.600Z,860
2017-06-02T09:16:46.290Z,790
2017-06-02T09:17:46.274Z,1085
2017-06-02T09:18:46.262Z,1190
2017-06-02T09:19:46.297Z,1300
2017-06-02T09:20:46.232Z,1850
2017-06-02T09:21:46.218Z,1800
2017-06-02T09:22:46.215Z,1915
2017-06-02T09:23:46.194Z,1905
2017-06-02T09:24:45.900Z,1875
2017-06-02T09:25:45.883Z,1850
2017-06-02T09:26:46.176Z,1820
2017-06-02T09:27:46.180Z,1875
2017-06-02T09:28:45.853Z,1890
2017-06-02T09:29:46.162Z,1885
2017-06-02T09:30:46.143Z,1920
2017-06-02T09:31:45.842Z,1910
2017-06-02T09:32:46.122Z,1890
2017-06-02T09:33:46.118Z,1885
2017-06-02T09:34:45.809Z,1820
2017-06-02T09:35:46.096Z,1870
2017-06-02T09:36:46.091Z,1885
2017-06-02T09:37:46.086Z,1890
2017-06-02T09:38:45.772Z,1915
2017-06-02T09:39:46.066Z,1950
2017-06-02T09:40:46.068Z,1955
2017-06-02T09:41:46.057Z,1960
2017-06-02T09:42:46.043Z,1960
2017-06-02T09:43:46.038Z,1960
2017-06-02T09:44:46.029Z,1960
2017-06-02T09:45:46.028Z,1960
2017-06-02T09:46:45.774Z,1940
2017-06-02T09:47:46.019Z,1925
2017-06-02T09:48:46.004Z,1915
2017-06-02T09:49:45.713Z,1905
2017-06-02T09:50:46.000Z,1925
2017-06-02T09:51:45.988Z,1950
2017-06-02T09:52:45.679Z,1935
2017-06-02T09:53:45.675Z,1915
2017-06-02T09:54:45.979Z,1900
2017-06-02T09:55:45.666Z,1935
2017-06-02T09:56:45.964Z,1975
2017-06-02T09:57:45.397Z,1935
2017-06-02T09:58:45.334Z,1945
2017-06-02T09:59:45.932Z,1930
2017-06-02T10:00:45.940Z,1960
2017-06-02T10:01:45.929Z,1925
2017-06-02T10:02:45.621Z,1930
2017-06-02T10:03:45.609Z,1910
2017-06-02T10:04:45.908Z,1890
2017-06-02T10:05:45.932Z,1845
2017-06-02T10:06:45.888Z,1845
2017-06-02T10:07:45.591Z,1850
2017-06-02T10:08:45.589Z,1835
2017-06-02T10:09:45.889Z,1845
2017-06-02T10:10:45.568Z,1860
2017-06-02T10:11:45.864Z,1890
2017-06-02T10:12:45.907Z,1930
2017-06-02T10:13:45.554Z,1950
2017-06-02T10:14:45.547Z,1965
2017-06-02T10:15:45.845Z,1975
2017-06-02T10:16:45.848Z,2010
2017-06-02T10:17:45.835Z,1990
2017-06-02T10:18:45.526Z,2015
2017-06-02T10:19:45.849Z,2020
2017-06-02T10:20:45.818Z,2020
2017-06-02T10:21:45.804Z,2025
2017-06-02T10:22:45.799Z,2020
2017-06-02T10:23:45.497Z,2025
2017-06-02T10:24:45.794Z,2005
2017-06-02T10:25:45.797Z,1995
2017-06-02T10:26:45.848Z,1975
2017-06-02T10:27:45.765Z,1970
2017-06-02T10:28:45.766Z,1955
2017-06-02T10:29:45.752Z,1955
2017-06-02T10:30:45.805Z,1980
2017-06-02T10:31:45.458Z,1985
2017-06-02T10:32:45.505Z,1980
2017-06-02T10:33:45.742Z,2000
2017-06-02T10:34:45.721Z,1970
2017-06-02T10:35:45.725Z,1990
2017-06-02T10:36:45.718Z,2005
2017-06-02T10:37:45.727Z,2005
2017-06-02T10:38:45.712Z,2010
2017-06-02T10:39:45.730Z,2000
2017-06-02T10:40:45.699Z,1985
2017-06-02T10:41:45.691Z,1970
2017-06-02T10:42:45.725Z,1950
2017-06-02T10:43:45.681Z,1960
2017-06-02T10:44:45.740Z,1970
2017-06-02T10:45:45.656Z,1995
2017-06-02T10:46:45.659Z,2020
2017-06-02T10:47:45.698Z,2040
2017-06-02T10:48:45.341Z,2040
2017-06-02T10:49:45.641Z,2055
2017-06-02T10:50:45.628Z,2060
2017-06-02T10:51:45.624Z,2055
2017-06-02T10:52:45.622Z,2055
2017-06-02T10:53:45.665Z,2090
2017-06-02T10:54:45.614Z,2095
2017-06-02T10:55:45.600Z,2130
2017-06-02T10:56:45.652Z,2130
2017-06-02T10:57:45.602Z,2140
2017-06-02T10:58:45.591Z,2165
2017-06-02T10:59:45.576Z,2160
2017-06-02T11:00:45.575Z,2120
2017-06-02T11:01:45.564Z,2135
2017-06-02T11:02:45.575Z,2130
2017-06-02T11:03:45.255Z,2085
2017-06-02T11:04:45.627Z,1740
2017-06-02T11:05:45.266Z,1300
2017-06-02T11:06:45.549Z,800
2017-06-02T11:07:45.267Z,460
2017-06-02T11:08:45.549Z,420
2017-06-02T11:09:45.226Z,420
2017-06-02T11:10:45.587Z,695
2017-06-02T11:11:45.527Z,1220
2017-06-02T11:12:45.508Z,1485
2017-06-02T11:13:45.549Z,905
2017-06-02T11:14:45.483Z,420
2017-06-02T11:15:45.486Z,425
2017-06-02T11:16:45.472Z,435
2017-06-02T11:17:45.462Z,435
2017-06-02T11:18:45.543Z,435
2017-06-02T11:19:45.454Z,430
2017-06-02T11:20:45.127Z,430
2017-06-02T11:21:45.113Z,430
2017-06-02T11:22:45.428Z,425
2017-06-02T11:23:45.395Z,425
2017-06-02T11:24:45.400Z,420
2017-06-02T11:25:45.383Z,420
2017-06-02T11:26:45.373Z,420
2017-06-02T11:27:45.352Z,415
2017-06-02T11:28:45.345Z,415
2017-06-02T11:29:45.333Z,415
2017-06-02T11:30:45.320Z,410
2017-06-02T11:31:45.314Z,415
2017-06-02T11:32:44.696Z,415
2017-06-02T11:33:45.285Z,415
2017-06-02T11:34:45.284Z,405
2017-06-02T11:35:44.963Z,415
2017-06-02T11:36:45.254Z,425
2017-06-02T11:37:45.234Z,420
2017-06-02T11:38:44.919Z,405
2017-06-02T11:39:45.211Z,400
2017-06-02T11:40:45.208Z,400
2017-06-02T11:41:45.177Z,410
2017-06-02T11:42:44.873Z,405
2017-06-02T11:43:45.148Z,400
2017-06-02T11:44:44.860Z,400
2017-06-02T11:45:45.133Z,395
2017-06-02T11:46:45.131Z,390
2017-06-02T11:47:44.811Z,390
2017-06-02T11:48:45.136Z,385
2017-06-02T11:49:45.123Z,390
2017-06-02T11:50:45.061Z,390
2017-06-02T11:51:45.062Z,375
2017-06-02T11:52:45.038Z,375
2017-06-02T11:53:45.033Z,365
2017-06-02T11:54:44.693Z,385
2017-06-02T11:55:44.998Z,395
2017-06-02T11:56:44.683Z,375
2017-06-02T11:58:44.951Z,365
2017-06-02T11:59:44.637Z,375
2017-06-02T12:00:44.926Z,370
2017-06-02T12:01:44.897Z,370
2017-06-02T12:02:44.888Z,390
2017-06-02T12:03:44.927Z,390
2017-06-02T12:04:44.867Z,400
2017-06-02T12:05:44.843Z,405
2017-06-02T12:06:44.848Z,380
2017-06-02T12:07:44.879Z,380
2017-06-02T12:08:44.804Z,395
2017-06-02T12:09:44.793Z,385
2017-06-02T12:10:44.788Z,375
2017-06-02T12:11:44.450Z,370
2017-06-02T12:12:44.749Z,365
2017-06-02T12:13:44.736Z,360
2017-06-02T12:14:44.719Z,365
2017-06-02T12:15:44.703Z,360
2017-06-02T12:16:44.697Z,360
2017-06-02T12:17:44.391Z,355
2017-06-02T12:18:44.364Z,350
2017-06-02T12:19:44.356Z,345
2017-06-02T12:20:44.333Z,335
2017-06-02T12:21:44.615Z,335
2017-06-02T12:22:44.603Z,345
2017-06-02T12:23:44.295Z,370
2017-06-02T12:24:44.587Z,390
2017-06-02T12:25:44.569Z,400
2017-06-02T12:26:44.254Z,410
2017-06-02T12:27:44.537Z,415
2017-06-02T12:28:44.525Z,425
2017-06-02T12:29:44.497Z,430
2017-06-02T12:30:44.791Z,445
2017-06-02T12:31:44.523Z,455
2017-06-02T12:32:44.159Z,460
2017-06-02T12:33:44.495Z,450
2017-06-02T12:34:44.452Z,450
2017-06-02T12:35:44.418Z,445
2017-06-02T12:36:44.400Z,455
2017-06-02T12:37:44.399Z,465
2017-06-02T12:38:44.073Z,465
2017-06-02T12:39:44.354Z,465
2017-06-02T12:40:44.349Z,455
2017-06-02T12:41:44.346Z,465
2017-06-02T12:42:44.059Z,455
2017-06-02T12:43:44.302Z,445
2017-06-02T12:44:44.284Z,440
2017-06-02T12:45:44.289Z,435
2017-06-02T12:46:43.958Z,435
2017-06-02T12:47:43.999Z,440
2017-06-02T12:48:44.249Z,465
2017-06-02T12:49:44.216Z,485
2017-06-02T12:50:44.205Z,475
2017-06-02T12:51:43.898Z,460
2017-06-02T12:52:43.882Z,440
2017-06-02T12:53:43.853Z,425
2017-06-02T12:54:44.151Z,420
2017-06-02T12:55:44.134Z,420
2017-06-02T12:56:44.116Z,415
2017-06-02T12:57:44.121Z,415
2017-06-02T12:58:44.116Z,410
2017-06-02T12:59:44.089Z,375
2017-06-02T13:00:44.116Z,365
2017-06-02T13:01:43.762Z,375
2017-06-02T13:02:44.029Z,390
2017-06-02T13:03:44.034Z,390
2017-06-02T13:04:44.027Z,395
2017-06-02T13:05:43.989Z,385
2017-06-02T13:06:43.980Z,375
2017-06-02T13:07:43.973Z,360
2017-06-02T13:08:43.955Z,360
2017-06-02T13:09:44.000Z,345
2017-06-02T13:10:43.929Z,335
2017-06-02T13:11:43.613Z,330
2017-06-02T13:12:43.607Z,320
2017-06-02T13:13:43.887Z,310
2017-06-02T13:14:43.878Z,300
2017-06-02T13:15:43.852Z,295
2017-06-02T13:16:43.865Z,300
2017-06-02T13:17:43.533Z,300
2017-06-02T13:18:43.833Z,300
2017-06-02T13:19:43.498Z,300
2017-06-02T13:20:43.783Z,310
2017-06-02T13:21:44.066Z,315
2017-06-02T13:22:43.858Z,320
2017-06-02T13:23:43.465Z,320
2017-06-02T13:24:43.720Z,320
2017-06-02T13:25:43.719Z,320
2017-06-02T13:26:43.156Z,335
2017-06-02T13:27:43.683Z,325
2017-06-02T13:28:43.375Z,315
2017-06-02T13:29:43.671Z,300
2017-06-02T13:30:43.641Z,295
2017-06-02T13:31:43.625Z,300
2017-06-02T13:32:43.660Z,300
2017-06-02T13:33:43.610Z,295
2017-06-02T13:34:43.894Z,290
2017-06-02T13:35:43.267Z,280
2017-06-02T13:36:43.551Z,290
2017-06-02T13:37:43.250Z,300
2017-06-02T13:38:43.530Z,295
2017-06-02T13:39:42.913Z,295
2017-06-02T13:40:42.960Z,295
2017-06-02T13:41:43.477Z,300
2017-06-02T13:42:43.462Z,305
2017-06-02T13:43:43.445Z,305
2017-06-02T13:44:43.443Z,320
2017-06-02T13:45:43.121Z,315
2017-06-02T13:46:43.107Z,310
2017-06-02T13:47:43.437Z,325
2017-06-02T13:48:43.387Z,340
2017-06-02T13:49:43.411Z,335
2017-06-02T13:50:43.346Z,315
2017-06-02T13:51:43.329Z,300
2017-06-02T13:52:43.042Z,305
2017-06-02T13:53:43.308Z,315
2017-06-02T13:54:43.291Z,325
2017-06-02T13:55:43.282Z,320